createdAt,value
2023-08-19T00:00:55.123Z,24.45
2023-08-19T00:03:24.679Z,24.33
2023-08-19T00:05:52.976Z,24.33
2023-08-19T00:08:21.131Z,24.31
2023-08-19T00:10:49.227Z,24.23
2023-08-19T00:13:17.410Z,24.17
2023-08-19T00:15:45.343Z,24.16
2023-08-19T00:18:13.303Z,24.23
2023-08-19T00:20:42.695Z,24.22
2023-08-19T00:23:10.838Z,24.15
2023-08-19T00:25:38.787Z,24.11
2023-08-19T00:28:07.461Z,24.10
2023-08-19T00:30:35.485Z,24.07
2023-08-19T00:33:03.561Z,24.03
2023-08-19T00:35:33.665Z,24.02
2023-08-19T00:38:04.094Z,24.05
2023-08-19T00:40:32.056Z,24.04
2023-08-19T00:43:00.013Z,24.03
2023-08-19T00:45:27.971Z,23.99
2023-08-19T00:47:55.966Z,24.03
2023-08-19T00:50:25.915Z,24.02
2023-08-19T00:52:55.136Z,24.02
2023-08-19T00:55:24.657Z,24.02
2023-08-19T00:57:52.622Z,23.99
2023-08-19T01:00:20.579Z,23.99
2023-08-19T01:02:48.662Z,24.03
2023-08-19T01:05:16.851Z,24.02
2023-08-19T01:07:48.087Z,24.00
2023-08-19T01:10:20.530Z,24.03
2023-08-19T01:12:53.650Z,23.98
2023-08-19T01:15:22.704Z,24.01
2023-08-19T01:17:51.269Z,24.05
2023-08-19T01:20:19.716Z,24.04
2023-08-19T01:22:51.917Z,24.07
2023-08-19T01:25:21.548Z,24.09
2023-08-19T01:27:49.534Z,24.05
2023-08-19T01:30:17.593Z,24.04
2023-08-19T01:32:45.613Z,24.05
2023-08-19T01:35:13.842Z,24.02
2023-08-19T01:37:44.351Z,23.99
2023-08-19T01:40:14.489Z,23.97
2023-08-19T01:42:44.128Z,23.93
2023-08-19T01:45:12.243Z,23.92
2023-08-19T01:47:40.847Z,23.92
2023-08-19T01:50:09.873Z,23.95
2023-08-19T01:52:37.827Z,23.88
2023-08-19T01:55:06.502Z,23.88
2023-08-19T01:57:34.752Z,23.83
2023-08-19T02:00:05.149Z,23.87
2023-08-19T02:02:33.244Z,23.75
2023-08-19T02:05:01.242Z,23.77
2023-08-19T02:07:29.536Z,23.70
2023-08-19T02:09:57.674Z,23.74
2023-08-19T02:12:25.866Z,23.63
2023-08-19T02:14:53.778Z,23.63
2023-08-19T02:17:23.180Z,23.64
2023-08-19T02:19:51.116Z,23.59
2023-08-19T02:22:21.997Z,23.60
2023-08-19T02:24:49.985Z,23.62
2023-08-19T02:27:18.322Z,23.61
2023-08-19T02:29:46.324Z,23.58
2023-08-19T02:32:14.297Z,23.60
2023-08-19T02:34:43.608Z,23.64
2023-08-19T02:37:14.588Z,23.67
2023-08-19T02:39:42.626Z,23.67
2023-08-19T02:42:12.575Z,23.63
2023-08-19T02:44:40.537Z,23.65
2023-08-19T02:47:08.606Z,23.66
2023-08-19T02:49:37.926Z,23.59
2023-08-19T02:52:07.814Z,23.53
2023-08-19T02:54:35.845Z,23.52
2023-08-19T02:57:04.141Z,23.54
2023-08-19T02:59:32.125Z,23.55
2023-08-19T03:02:00.044Z,23.54
2023-08-19T03:04:28.025Z,23.59
2023-08-19T03:06:56.108Z,23.61
2023-08-19T03:09:25.457Z,23.62
2023-08-19T03:11:53.463Z,23.62
2023-08-19T03:14:21.426Z,23.69
2023-08-19T03:16:51.255Z,23.67
2023-08-19T03:19:19.483Z,23.73
2023-08-19T03:21:47.509Z,23.73
2023-08-19T03:24:15.511Z,23.68
2023-08-19T03:26:44.908Z,23.76
2023-08-19T03:29:12.940Z,23.73
2023-08-19T03:31:41.401Z,23.76
2023-08-19T03:34:09.377Z,23.68
2023-08-19T03:36:37.342Z,23.72
2023-08-19T03:39:05.605Z,23.79
2023-08-19T03:41:33.601Z,23.79
2023-08-19T03:44:03.400Z,23.78
2023-08-19T03:46:31.380Z,23.77
2023-08-19T03:48:59.421Z,23.76
2023-08-19T03:51:28.139Z,23.78
2023-08-19T03:53:56.065Z,23.78
2023-08-19T03:56:24.268Z,23.77
2023-08-19T03:58:52.192Z,23.76
2023-08-19T04:01:21.776Z,23.74
2023-08-19T04:03:49.754Z,23.77
2023-08-19T04:06:17.924Z,23.66
2023-08-19T04:08:46.075Z,23.69
2023-08-19T04:11:14.059Z,23.68
2023-08-19T04:13:42.467Z,23.75
2023-08-19T04:16:10.493Z,23.70
2023-08-19T04:18:39.856Z,23.62
2023-08-19T04:21:08.046Z,23.74
2023-08-19T04:23:36.015Z,23.75
2023-08-19T04:26:04.281Z,23.65
2023-08-19T04:28:32.345Z,23.74
2023-08-19T04:31:04.161Z,23.77
2023-08-19T04:33:32.272Z,23.80
2023-08-19T04:36:01.849Z,23.77
2023-08-19T04:38:29.878Z,23.72
2023-08-19T04:40:58.158Z,23.78
2023-08-19T04:43:26.119Z,23.81
2023-08-19T04:45:55.771Z,23.93
2023-08-19T04:48:23.865Z,23.93
2023-08-19T04:50:51.829Z,23.91
2023-08-19T04:53:21.741Z,23.91
2023-08-19T04:55:49.681Z,23.90
2023-08-19T04:58:17.710Z,23.99
2023-08-19T05:00:45.632Z,23.97
2023-08-19T05:03:13.698Z,24.00
2023-08-19T05:05:42.964Z,24.02
2023-08-19T05:08:10.925Z,24.01
2023-08-19T05:10:40.242Z,24.07
2023-08-19T05:13:08.431Z,23.91
2023-08-19T05:15:36.968Z,23.96
2023-08-19T05:18:05.565Z,24.01
2023-08-19T05:20:33.568Z,24.08
2023-08-19T05:23:01.498Z,24.11
2023-08-19T05:25:30.679Z,24.04
2023-08-19T05:28:00.007Z,24.14
2023-08-19T05:30:28.312Z,24.12
2023-08-19T05:32:56.334Z,24.09
2023-08-19T05:35:24.347Z,24.11
2023-08-19T05:37:52.433Z,24.20
2023-08-19T05:40:20.525Z,24.21
2023-08-19T05:42:48.707Z,24.15
2023-08-19T05:45:18.433Z,24.27
2023-08-19T05:47:46.417Z,24.31
2023-08-19T05:50:14.392Z,24.29
2023-08-19T05:52:42.330Z,24.29
2023-08-19T05:55:10.640Z,24.18
2023-08-19T05:57:38.579Z,24.27
2023-08-19T06:00:07.715Z,24.37
2023-08-19T06:02:37.155Z,24.35
2023-08-19T06:05:05.571Z,24.33
2023-08-19T06:07:35.068Z,24.38
2023-08-19T06:10:04.531Z,24.50
2023-08-19T06:12:33.164Z,24.54
2023-08-19T06:15:01.146Z,24.52
2023-08-19T06:17:29.177Z,24.66
2023-08-19T06:19:58.583Z,24.71
2023-08-19T06:22:26.545Z,24.73
2023-08-19T06:24:54.517Z,24.76
2023-08-19T06:27:22.481Z,24.92
2023-08-19T06:29:50.434Z,25.04
2023-08-19T06:32:19.426Z,25.15
2023-08-19T06:34:48.222Z,25.19
2023-08-19T06:37:20.579Z,25.25
2023-08-19T06:39:50.856Z,25.29
2023-08-19T06:42:20.960Z,25.35
2023-08-19T06:44:49.038Z,25.47
2023-08-19T06:47:20.992Z,25.56
2023-08-19T06:49:51.936Z,25.56
2023-08-19T06:52:22.221Z,25.47
2023-08-19T06:54:50.746Z,25.69
2023-08-19T06:57:22.789Z,25.65
2023-08-19T06:59:50.872Z,25.69
2023-08-19T07:02:18.826Z,25.69
2023-08-19T07:04:47.074Z,25.83
2023-08-19T07:07:15.125Z,25.85
2023-08-19T07:09:45.090Z,25.87
2023-08-19T07:12:14.846Z,25.95
2023-08-19T07:14:43.215Z,25.84
2023-08-19T07:17:11.236Z,26.00
2023-08-19T07:19:40.388Z,26.09
2023-08-19T07:22:08.650Z,26.19
2023-08-19T07:24:40.029Z,26.25
2023-08-19T07:27:14.153Z,26.31
2023-08-19T07:29:42.598Z,26.42
2023-08-19T07:32:11.487Z,26.45
2023-08-19T07:34:40.936Z,26.59
2023-08-19T07:37:11.243Z,26.55
2023-08-19T07:39:40.363Z,26.56
2023-08-19T07:42:09.795Z,26.63
2023-08-19T07:44:37.747Z,26.71
2023-08-19T07:47:06.228Z,26.69
2023-08-19T07:49:34.267Z,26.67
2023-08-19T07:52:02.282Z,26.78
2023-08-19T07:54:30.588Z,26.73
2023-08-19T07:56:59.206Z,26.68
2023-08-19T07:59:28.502Z,26.70
2023-08-19T08:01:58.691Z,26.72
2023-08-19T08:04:42.440Z,26.63
2023-08-19T08:07:11.244Z,26.57
2023-08-19T08:09:39.913Z,26.69
2023-08-19T08:12:08.388Z,26.76
2023-08-19T08:14:37.733Z,26.87
2023-08-19T08:17:07.806Z,26.90
2023-08-19T08:19:35.765Z,26.97
2023-08-19T08:22:04.242Z,26.98
2023-08-19T08:24:34.494Z,27.10
2023-08-19T08:27:04.118Z,27.05
2023-08-19T08:29:32.337Z,27.06
2023-08-19T08:32:01.786Z,27.02
2023-08-19T08:34:29.711Z,27.04
2023-08-19T08:36:57.995Z,27.06
2023-08-19T08:39:25.967Z,26.98
2023-08-19T08:41:55.793Z,27.01
2023-08-19T08:44:26.196Z,27.05
2023-08-19T08:46:54.135Z,27.15
2023-08-19T08:49:23.897Z,27.18
2023-08-19T08:51:56.110Z,27.22
2023-08-19T08:54:29.366Z,27.26
2023-08-19T08:56:57.617Z,27.41
2023-08-19T08:59:27.687Z,27.48
2023-08-19T09:01:58.735Z,27.57
2023-08-19T09:04:33.662Z,27.48
2023-08-19T09:07:12.441Z,27.75
2023-08-19T09:09:42.460Z,27.69
2023-08-19T09:12:12.588Z,27.96
2023-08-19T09:14:42.315Z,28.12
2023-08-19T09:17:10.342Z,28.16
2023-08-19T09:19:41.610Z,28.14
2023-08-19T09:22:13.509Z,28.34
2023-08-19T09:24:41.507Z,28.26
2023-08-19T09:27:09.443Z,28.41
2023-08-19T09:29:37.463Z,28.40
2023-08-19T09:32:06.048Z,28.47
2023-08-19T09:34:34.843Z,28.60
2023-08-19T09:37:05.280Z,28.64
2023-08-19T09:39:36.136Z,28.67
2023-08-19T09:42:06.127Z,28.75
2023-08-19T09:44:34.514Z,28.82
2023-08-19T09:47:04.574Z,29.02
2023-08-19T09:49:32.644Z,28.92
2023-08-19T09:52:00.831Z,28.93
2023-08-19T09:54:30.236Z,29.07
2023-08-19T09:56:58.827Z,29.09
2023-08-19T09:59:26.953Z,29.12
2023-08-19T10:01:58.321Z,29.12
2023-08-19T10:04:26.414Z,29.22
2023-08-19T10:06:54.458Z,29.40
2023-08-19T10:09:24.665Z,29.27
2023-08-19T10:11:55.808Z,29.39
2023-08-19T10:14:28.403Z,29.44
2023-08-19T10:16:56.429Z,29.43
2023-08-19T10:19:28.856Z,29.43
2023-08-19T10:21:57.057Z,29.62
2023-08-19T10:24:24.997Z,29.84
2023-08-19T10:26:56.669Z,29.83
2023-08-19T10:29:24.612Z,29.94
2023-08-19T10:31:52.732Z,29.91
2023-08-19T10:34:27.501Z,29.96
2023-08-19T10:37:08.609Z,29.82
2023-08-19T10:39:36.731Z,30.06
2023-08-19T10:42:06.836Z,30.04
2023-08-19T10:44:36.880Z,30.03
2023-08-19T10:47:12.561Z,30.21
2023-08-19T10:49:40.818Z,30.23
2023-08-19T10:52:09.179Z,30.28
2023-08-19T10:54:40.046Z,30.30
2023-08-19T10:57:10.584Z,30.44
2023-08-19T10:59:39.664Z,30.50
2023-08-19T11:02:08.174Z,30.53
2023-08-19T11:04:38.017Z,30.62
2023-08-19T11:07:08.418Z,30.67
2023-08-19T11:09:36.509Z,30.88
2023-08-19T11:12:04.898Z,31.06
2023-08-19T11:14:36.714Z,30.94
2023-08-19T11:17:04.706Z,31.18
2023-08-19T11:19:33.708Z,31.20
2023-08-19T11:22:01.801Z,31.29
2023-08-19T11:24:32.968Z,31.52
2023-08-19T11:27:00.987Z,31.45
2023-08-19T11:29:29.012Z,31.66
2023-08-19T11:31:59.303Z,32.04
2023-08-19T11:34:28.762Z,32.22
2023-08-19T11:36:58.243Z,32.18
2023-08-19T11:39:32.096Z,32.52
2023-08-19T11:42:00.154Z,32.53
2023-08-19T11:44:28.116Z,32.61
2023-08-19T11:46:57.314Z,32.46
2023-08-19T11:49:30.006Z,32.53
2023-08-19T11:51:57.938Z,32.70
2023-08-19T11:54:25.910Z,32.77
2023-08-19T11:56:54.446Z,32.60
2023-08-19T11:59:30.340Z,32.77
2023-08-19T12:01:58.408Z,32.74
2023-08-19T12:04:27.820Z,32.77
2023-08-19T12:06:58.824Z,32.50
2023-08-19T12:09:33.241Z,32.37
2023-08-19T12:12:03.813Z,32.28
2023-08-19T12:14:33.038Z,32.01
2023-08-19T12:17:12.734Z,31.85
2023-08-19T12:19:48.542Z,31.81
2023-08-19T12:22:16.618Z,31.73
2023-08-19T12:24:44.894Z,31.66
2023-08-19T12:27:12.973Z,31.62
2023-08-19T12:29:43.494Z,31.58
2023-08-19T12:32:11.681Z,31.50
2023-08-19T12:34:39.630Z,31.55
2023-08-19T12:37:09.337Z,31.59
2023-08-19T12:39:40.872Z,31.59
2023-08-19T12:42:09.018Z,31.69
2023-08-19T12:44:37.060Z,31.75
2023-08-19T12:47:05.202Z,31.87
2023-08-19T12:49:33.211Z,32.04
2023-08-19T12:52:01.260Z,32.01
2023-08-19T12:54:30.784Z,32.01
2023-08-19T12:56:59.905Z,32.09
2023-08-19T12:59:28.190Z,31.91
2023-08-19T13:01:56.328Z,31.88
2023-08-19T13:04:24.372Z,31.17
2023-08-19T13:06:52.368Z,31.17
2023-08-19T13:09:22.036Z,31.33
2023-08-19T13:11:51.525Z,31.31
2023-08-19T13:14:20.592Z,31.48
2023-08-19T13:16:58.936Z,31.39
2023-08-19T13:19:31.954Z,31.12
2023-08-19T13:22:00.243Z,30.48
2023-08-19T13:24:28.183Z,30.58
2023-08-19T13:26:57.607Z,30.75
2023-08-19T13:29:25.609Z,30.66
2023-08-19T13:31:53.536Z,30.74
2023-08-19T13:34:22.157Z,30.68
2023-08-19T13:36:50.157Z,30.37
2023-08-19T13:39:18.181Z,30.16
2023-08-19T13:41:46.171Z,29.56
2023-08-19T13:44:15.718Z,29.80
2023-08-19T13:46:44.795Z,29.66
2023-08-19T13:49:12.988Z,29.29
2023-08-19T13:51:41.050Z,29.21
2023-08-19T13:54:09.273Z,29.25
2023-08-19T13:56:37.286Z,29.03
2023-08-19T13:59:06.439Z,28.96
2023-08-19T14:01:35.904Z,28.78
2023-08-19T14:04:03.880Z,28.87
2023-08-19T14:06:31.975Z,28.77
2023-08-19T14:09:00.072Z,28.59
2023-08-19T14:11:28.492Z,28.58
2023-08-19T14:13:57.016Z,28.42
2023-08-19T14:16:25.023Z,27.86
2023-08-19T14:18:54.350Z,28.11
2023-08-19T14:21:22.719Z,28.03
2023-08-19T14:23:50.684Z,27.80
2023-08-19T14:26:18.662Z,27.41
2023-08-19T14:28:46.585Z,27.59
2023-08-19T14:31:14.617Z,27.66
2023-08-19T14:33:43.870Z,27.43
2023-08-19T14:36:13.202Z,27.30
2023-08-19T14:38:41.163Z,27.43
2023-08-19T14:41:09.113Z,26.89
2023-08-19T14:43:37.064Z,27.20
2023-08-19T14:46:10.174Z,27.13
2023-08-19T14:48:38.500Z,27.10
2023-08-19T14:51:06.521Z,26.94
2023-08-19T14:53:35.879Z,26.89
2023-08-19T14:56:04.417Z,26.50
2023-08-19T14:58:32.410Z,26.18
2023-08-19T15:01:00.355Z,26.00
2023-08-19T15:03:28.561Z,26.12
2023-08-19T15:05:56.812Z,26.06
2023-08-19T15:08:24.812Z,25.82
2023-08-19T15:10:54.218Z,25.98
2023-08-19T15:13:22.222Z,25.96
2023-08-19T15:15:50.203Z,25.76
2023-08-19T15:18:18.240Z,25.87
2023-08-19T15:20:47.505Z,25.88
2023-08-19T15:23:15.461Z,26.03
2023-08-19T15:25:43.382Z,26.00
2023-08-19T15:28:12.783Z,25.97
2023-08-19T15:30:40.719Z,26.08
2023-08-19T15:33:08.655Z,26.07
2023-08-19T15:35:36.649Z,26.19
2023-08-19T15:38:05.044Z,26.30
2023-08-19T15:40:33.461Z,26.46
2023-08-19T15:43:03.029Z,26.73
2023-08-19T15:45:32.514Z,26.89
2023-08-19T15:48:00.494Z,26.88
2023-08-19T15:50:28.524Z,26.94
2023-08-19T15:52:56.484Z,26.89
2023-08-19T15:55:25.165Z,27.10
2023-08-19T15:57:53.834Z,27.18
2023-08-19T16:00:21.854Z,27.42
2023-08-19T16:02:51.289Z,27.53
2023-08-19T16:05:19.617Z,27.52
2023-08-19T16:07:51.152Z,27.52
2023-08-19T16:10:24.259Z,27.50
2023-08-19T16:12:52.652Z,27.54
2023-08-19T16:15:20.597Z,27.44
2023-08-19T16:17:55.078Z,27.46
2023-08-19T16:20:26.628Z,27.41
2023-08-19T16:22:54.866Z,27.44
2023-08-19T16:25:22.781Z,27.42
2023-08-19T16:27:52.871Z,27.57
2023-08-19T16:30:21.214Z,27.51
2023-08-19T16:32:49.357Z,27.50
2023-08-19T16:35:19.135Z,27.50
2023-08-19T16:37:47.176Z,27.41
2023-08-19T16:40:20.285Z,27.45
2023-08-19T16:42:51.687Z,27.28
2023-08-19T16:45:20.174Z,27.31
2023-08-19T16:47:48.122Z,27.28
2023-08-19T16:50:16.101Z,27.32
2023-08-19T16:52:45.433Z,27.37
2023-08-19T16:55:13.473Z,27.32
2023-08-19T16:57:44.013Z,27.43
2023-08-19T17:00:13.570Z,27.40
2023-08-19T17:02:41.568Z,27.41
2023-08-19T17:05:10.291Z,27.40
2023-08-19T17:07:38.233Z,27.32
2023-08-19T17:10:09.088Z,27.26
2023-08-19T17:12:42.782Z,27.21
2023-08-19T17:15:11.206Z,27.21
2023-08-19T17:17:39.256Z,27.12
2023-08-19T17:20:08.651Z,27.17
2023-08-19T17:22:39.743Z,27.16
2023-08-19T17:25:11.416Z,26.99
2023-08-19T17:27:39.405Z,27.00
2023-08-19T17:30:08.834Z,26.98
2023-08-19T17:32:36.834Z,26.91
2023-08-19T17:35:05.540Z,26.80
2023-08-19T17:37:33.709Z,26.70
2023-08-19T17:40:01.932Z,26.71
2023-08-19T17:42:32.568Z,26.68
2023-08-19T17:45:00.548Z,26.63
2023-08-19T17:47:28.540Z,26.50
2023-08-19T17:49:56.466Z,26.43
2023-08-19T17:52:24.753Z,26.34
2023-08-19T17:54:53.248Z,26.27
2023-08-19T17:57:21.190Z,26.14
2023-08-19T17:59:50.546Z,26.15
2023-08-19T18:02:18.729Z,26.05
2023-08-19T18:04:46.814Z,25.95
2023-08-19T18:07:15.078Z,25.84
2023-08-19T18:09:43.060Z,25.82
2023-08-19T18:12:11.042Z,25.69
2023-08-19T18:14:42.524Z,25.64
2023-08-19T18:17:12.949Z,25.56
2023-08-19T18:19:40.874Z,25.48
2023-08-19T18:22:11.147Z,25.46
2023-08-19T18:24:39.373Z,25.36
2023-08-19T18:27:07.516Z,25.30
2023-08-19T18:29:35.486Z,25.23
2023-08-19T18:32:03.960Z,25.06
2023-08-19T18:34:34.143Z,25.09
2023-08-19T18:37:03.096Z,25.07
2023-08-19T18:39:31.243Z,24.99
2023-08-19T18:42:07.444Z,24.93
2023-08-19T18:45:44.070Z,24.85
2023-08-19T18:48:14.688Z,24.70
2023-08-19T18:50:45.815Z,24.64
2023-08-19T18:53:13.809Z,24.57
2023-08-19T18:55:42.425Z,24.55
2023-08-19T18:58:10.436Z,24.46
2023-08-19T19:00:38.378Z,24.37
2023-08-19T19:03:07.042Z,24.30
2023-08-19T19:05:35.099Z,24.29
2023-08-19T19:08:04.942Z,24.27
2023-08-19T19:10:32.867Z,24.24
2023-08-19T19:13:00.843Z,24.19
2023-08-19T19:15:28.835Z,24.12
2023-08-19T19:17:58.146Z,24.10
2023-08-19T19:20:26.801Z,24.03
2023-08-19T19:22:54.919Z,24.01
2023-08-19T19:25:24.435Z,23.93
2023-08-19T19:27:52.983Z,23.84
2023-08-19T19:30:22.304Z,23.75
2023-08-19T19:32:50.745Z,23.73
2023-08-19T19:35:20.115Z,23.62
2023-08-19T19:37:51.528Z,23.56
2023-08-19T19:40:19.555Z,23.56
2023-08-19T19:42:49.513Z,23.58
2023-08-19T19:45:17.741Z,23.53
2023-08-19T19:47:45.851Z,23.47
2023-08-19T19:50:13.956Z,23.41
2023-08-19T19:52:41.924Z,23.37
2023-08-19T19:55:10.245Z,23.36
2023-08-19T19:57:38.451Z,23.32
2023-08-19T20:00:11.107Z,23.27
2023-08-19T20:02:39.158Z,23.20
2023-08-19T20:05:07.603Z,23.17
2023-08-19T20:07:35.789Z,23.09
2023-08-19T20:12:35.679Z,23.02
2023-08-19T20:15:04.000Z,23.01
2023-08-19T20:17:33.614Z,22.97
2023-08-19T20:20:01.635Z,22.94
2023-08-19T20:22:29.597Z,22.96
2023-08-19T20:24:57.555Z,23.01
2023-08-19T20:27:25.626Z,23.02
2023-08-19T20:29:53.691Z,23.03
2023-08-19T20:32:21.674Z,23.08
2023-08-19T20:34:51.017Z,23.08
2023-08-19T20:37:21.562Z,23.04
2023-08-19T20:39:51.661Z,22.97
2023-08-19T20:42:19.705Z,22.97
2023-08-19T20:44:48.485Z,23.00
2023-08-19T20:47:16.515Z,22.97
2023-08-19T20:49:44.500Z,22.95
2023-08-19T20:52:13.831Z,22.91
2023-08-19T20:54:43.870Z,22.85
2023-08-19T20:57:11.856Z,22.86
2023-08-19T20:59:39.867Z,22.85
2023-08-19T21:02:08.248Z,22.81
2023-08-19T21:04:36.281Z,22.73
2023-08-19T21:07:04.292Z,22.68
2023-08-19T21:09:33.650Z,22.66
2023-08-19T21:12:01.658Z,22.66
2023-08-19T21:14:30.636Z,22.60
2023-08-19T21:16:58.653Z,22.53
2023-08-19T21:19:27.031Z,22.50
2023-08-19T21:21:58.684Z,22.43
2023-08-19T21:24:26.718Z,22.41
2023-08-19T21:26:56.205Z,22.40
2023-08-19T21:29:24.984Z,22.30
2023-08-19T21:31:53.010Z,22.30
2023-08-19T21:34:21.444Z,22.28
2023-08-19T21:36:49.450Z,22.25
2023-08-19T21:39:17.482Z,22.22
2023-08-19T21:41:45.517Z,22.22
2023-08-19T21:44:14.816Z,22.20
2023-08-19T21:46:42.798Z,22.17
2023-08-19T21:49:10.909Z,22.14
2023-08-19T21:51:38.894Z,22.13
2023-08-19T21:54:07.038Z,22.05
2023-08-19T21:56:34.996Z,21.96
2023-08-19T21:59:03.129Z,21.88
2023-08-19T22:01:32.581Z,21.86
2023-08-19T22:04:00.520Z,21.86
2023-08-19T22:06:28.473Z,21.83
2023-08-19T22:08:56.482Z,21.83
2023-08-19T22:11:24.556Z,21.82
2023-08-19T22:13:52.560Z,21.79
2023-08-19T22:16:20.922Z,21.79
2023-08-19T22:18:50.309Z,21.78
2023-08-19T22:21:18.321Z,21.76
2023-08-19T22:23:46.267Z,21.70
2023-08-19T22:26:14.246Z,21.67
2023-08-19T22:28:42.292Z,21.65
2023-08-19T22:31:10.438Z,21.62
2023-08-19T22:33:38.443Z,21.61
2023-08-19T22:36:08.747Z,21.61
2023-08-19T22:38:36.896Z,21.50
2023-08-19T22:41:04.858Z,21.44
2023-08-19T22:43:32.900Z,21.47
2023-08-19T22:46:00.899Z,21.50
2023-08-19T22:48:28.866Z,21.51
2023-08-19T22:50:56.881Z,21.47
2023-08-19T22:53:26.243Z,21.51
2023-08-19T22:55:54.256Z,21.51
2023-08-19T22:58:22.234Z,21.56
2023-08-19T23:00:50.372Z,21.64
2023-08-19T23:03:18.346Z,21.71
2023-08-19T23:05:46.393Z,21.76
2023-08-19T23:08:14.393Z,21.76
2023-08-19T23:10:43.945Z,21.84
2023-08-19T23:13:11.935Z,21.89
2023-08-19T23:15:39.878Z,21.93
2023-08-19T23:18:07.970Z,21.96
2023-08-19T23:20:35.924Z,22.02
2023-08-19T23:23:04.060Z,22.07
2023-08-19T23:25:32.074Z,22.09
2023-08-19T23:28:01.643Z,22.13
2023-08-19T23:30:29.688Z,22.08
2023-08-19T23:32:57.686Z,22.14
2023-08-19T23:35:25.836Z,22.19
2023-08-19T23:37:53.814Z,22.20
2023-08-19T23:40:21.869Z,22.24
2023-08-19T23:42:49.844Z,22.11
2023-08-19T23:45:19.431Z,22.12
2023-08-19T23:47:48.052Z,22.11
2023-08-19T23:50:16.921Z,22.13
2023-08-19T23:52:46.851Z,22.21
2023-08-19T23:55:16.471Z,22.17
2023-08-19T23:57:46.619Z,22.16
